Time;durP1;ratioP1;P1;durP2;ratioP2;P2;SDS_P1;SDS_P2;PMS_P1;PMS_P2;Temp;Humidity;BMP_temperature;BMP_pressure;BME280_temperature;BME280_humidity;BME280_pressure;Samples;Min_cycle;Max_cycle;Signal;HPM_P1;HPM_P2
2022/02/18 00:00:50;;;;;;;13.23;2.22;;;;;;;7.34;73.64;101126.81;5043874;28;20033;-72
2022/02/18 00:03:15;;;;;;;18.08;2.92;;;;;;;7.32;73.83;101132.06;5044105;28;20128;-71
2022/02/18 00:05:42;;;;;;;17.10;2.88;;;;;;;7.29;74.01;101116.38;5044138;28;20068;-73
2022/02/18 00:08:07;;;;;;;12.90;2.58;;;;;;;7.31;74.12;101114.63;5044256;28;20051;-71
2022/02/18 00:10:33;;;;;;;24.98;2.88;;;;;;;7.34;74.01;101113.69;5044331;28;20476;-70
2022/02/18 00:12:59;;;;;;;16.90;2.25;;;;;;;7.41;74.08;101111.84;5043070;28;20033;-71
2022/02/18 00:15:24;;;;;;;14.63;2.50;;;;;;;7.40;74.02;101097.00;5044187;28;20044;-73
2022/02/18 00:17:50;;;;;;;18.35;2.28;;;;;;;7.43;73.80;101094.31;5044240;28;20113;-72
2022/02/18 00:20:15;;;;;;;16.20;2.13;;;;;;;7.45;73.79;101092.56;5044302;28;20472;-70
2022/02/18 00:22:40;;;;;;;23.30;2.97;;;;;;;7.45;73.67;101089.94;5043356;28;20071;-73
2022/02/18 00:25:08;;;;;;;19.70;2.30;;;;;;;7.48;73.61;101082.00;5047980;28;20124;-72
2022/02/18 00:27:35;;;;;;;14.60;2.58;;;;;;;7.46;73.52;101083.78;5047815;28;20032;-73
2022/02/18 00:30:01;;;;;;;11.48;2.75;;;;;;;7.46;73.67;101086.41;5046597;28;20045;-72
2022/02/18 00:32:27;;;;;;;18.27;2.47;;;;;;;7.45;73.76;101085.56;5048089;28;20477;-72
2022/02/18 00:34:52;;;;;;;14.18;2.90;;;;;;;7.44;73.82;101069.84;5045772;28;20120;-73
2022/02/18 00:37:18;;;;;;;18.10;2.63;;;;;;;7.48;73.58;101079.41;5046687;28;20487;-73
2022/02/18 00:39:44;;;;;;;25.85;3.22;;;;;;;7.50;73.65;101072.38;5048087;28;20663;-71
2022/02/18 00:42:09;;;;;;;18.65;3.15;;;;;;;7.48;73.49;101076.78;5047097;28;20036;-72
2022/02/18 00:44:35;;;;;;;23.35;2.78;;;;;;;7.51;73.48;101076.72;5047883;28;20051;-72
2022/02/18 00:47:00;;;;;;;15.85;3.10;;;;;;;7.44;73.75;101081.19;5047820;28;20394;-73
2022/02/18 00:49:25;;;;;;;20.13;3.22;;;;;;;7.47;73.72;101077.66;5046987;28;20017;-72
2022/02/18 00:51:51;;;;;;;17.55;3.30;;;;;;;7.49;73.77;101085.50;5046635;28;20171;-70
2022/02/18 00:54:16;;;;;;;15.98;2.70;;;;;;;7.54;73.30;101073.19;5047778;28;20019;-70
2022/02/18 00:56:41;;;;;;;28.15;2.90;;;;;;;7.49;73.38;101067.16;5047324;28;20407;-72
2022/02/18 00:59:10;;;;;;;19.27;3.00;;;;;;;7.52;73.55;101072.31;5045197;28;20395;-73
2022/02/18 01:01:35;;;;;;;16.37;2.67;;;;;;;7.53;73.48;101060.97;5044244;28;20273;-72
2022/02/18 01:04:02;;;;;;;15.32;3.15;;;;;;;7.53;73.72;101056.56;5045460;28;20283;-71
2022/02/18 01:06:28;;;;;;;22.77;2.95;;;;;;;7.57;73.56;101049.53;5047196;28;20055;-71
2022/02/18 01:08:54;;;;;;;15.65;2.75;;;;;;;7.52;73.69;101046.97;5047498;28;20013;-71
2022/02/18 01:11:20;;;;;;;25.98;3.40;;;;;;;7.52;73.82;101046.97;5045786;28;20206;-73
2022/02/18 01:13:45;;;;;;;19.48;3.45;;;;;;;7.54;73.82;101054.81;5046844;28;20033;-70
2022/02/18 01:16:11;;;;;;;21.98;3.58;;;;;;;7.59;73.77;101053.00;5047177;28;20062;-73
2022/02/18 01:18:36;;;;;;;17.98;3.03;;;;;;;7.59;73.84;101048.59;5046475;28;20391;-72
2022/02/18 01:21:02;;;;;;;22.65;3.03;;;;;;;7.64;73.78;101045.00;5043193;28;20146;-72
2022/02/18 01:23:28;;;;;;;19.30;2.63;;;;;;;7.67;73.68;101050.22;5045307;28;20025;-71
2022/02/18 01:25:53;;;;;;;22.25;3.90;;;;;;;7.61;74.03;101040.69;5045713;28;20063;-72
2022/02/18 01:28:18;;;;;;;22.27;3.47;;;;;;;7.61;73.97;101030.22;5044989;28;20037;-71
2022/02/18 01:30:44;;;;;;;17.83;3.22;;;;;;;7.66;73.77;101024.88;5047832;28;20071;-71
2022/02/18 01:33:10;;;;;;;21.63;3.45;;;;;;;7.64;74.04;101019.66;5049753;28;20546;-73
2022/02/18 01:35:35;;;;;;;27.35;4.38;;;;;;;7.58;74.52;101022.41;5044993;28;20109;-71
2022/02/18 01:38:03;;;;;;;24.27;4.10;;;;;;;7.68;73.90;101023.09;5045720;28;20552;-71
2022/02/18 01:40:30;;;;;;;25.38;4.18;;;;;;;7.69;74.13;101016.97;5042574;28;20044;-71
2022/02/18 01:42:55;;;;;;;28.27;3.95;;;;;;;7.70;74.36;101010.81;5035935;28;20025;-72
2022/02/18 01:45:20;;;;;;;26.77;4.03;;;;;;;7.69;74.40;101003.84;5045512;28;20033;-70
2022/02/18 01:47:46;;;;;;;28.55;4.70;;;;;;;7.74;74.37;100999.38;5045636;28;20075;-71
2022/02/18 01:50:11;;;;;;;25.25;3.50;;;;;;;7.76;74.45;100987.09;5046653;28;20369;-68
2022/02/18 01:52:40;;;;;;;23.55;3.88;;;;;;;7.75;74.56;100981.88;5046164;28;20029;-73
2022/02/18 01:55:10;;;;;;;20.00;3.30;;;;;;;7.71;74.89;100967.97;5046733;28;20673;-72
2022/02/18 01:57:39;;;;;;;28.88;5.18;;;;;;;7.67;75.11;100959.28;5045845;28;20359;-70
2022/02/18 02:00:09;;;;;;;27.45;3.63;;;;;;;7.65;75.22;100953.19;5046072;28;20025;-70
2022/02/18 02:02:34;;;;;;;26.15;3.83;;;;;;;7.63;75.24;100946.25;5044411;28;20242;-72
2022/02/18 02:05:00;;;;;;;18.63;3.72;;;;;;;7.62;75.28;100941.91;5044622;28;20125;-72
2022/02/18 02:07:26;;;;;;;22.15;3.95;;;;;;;7.65;75.00;100929.59;5045531;28;20033;-71
2022/02/18 02:09:52;;;;;;;30.65;4.35;;;;;;;7.68;74.86;100912.94;5044969;28;20052;-72
2022/02/18 02:12:18;;;;;;;31.73;3.75;;;;;;;7.74;74.72;100910.19;5044250;28;20072;-72
2022/02/18 02:14:43;;;;;;;26.20;4.28;;;;;;;7.73;74.89;100907.63;5044554;28;20057;-73
2022/02/18 02:17:10;;;;;;;30.17;4.55;;;;;;;7.75;74.73;100921.53;5045167;28;20402;-73
2022/02/18 02:19:35;;;;;;;34.42;4.07;;;;;;;7.76;74.73;100911.00;5045558;28;20028;-73
2022/02/18 02:22:00;;;;;;;40.03;5.45;;;;;;;7.75;74.84;100901.44;5045456;28;20021;-72
2022/02/18 02:24:26;;;;;;;25.52;4.80;;;;;;;7.74;74.65;100893.59;5045883;28;20052;-73
2022/02/18 02:26:51;;;;;;;35.40;4.47;;;;;;;7.69;74.75;100886.69;5044774;28;20065;-74
2022/02/18 02:29:17;;;;;;;24.90;3.67;;;;;;;7.64;74.90;100879.78;5044914;28;20487;-73
2022/02/18 02:31:42;;;;;;;26.55;3.92;;;;;;;7.59;75.13;100874.66;5045557;28;20391;-74
2022/02/18 02:34:08;;;;;;;30.10;4.72;;;;;;;7.58;75.36;100865.94;5045079;28;20488;-70
2022/02/18 02:36:34;;;;;;;29.17;3.80;;;;;;;7.57;75.46;100861.59;5045342;28;20573;-72
2022/02/18 02:38:59;;;;;;;28.27;3.85;;;;;;;7.56;75.92;100862.47;5044293;28;20029;-72
2022/02/18 02:41:25;;;;;;;29.00;5.28;;;;;;;7.60;75.86;100850.16;5041470;28;20078;-73
2022/02/18 02:43:50;;;;;;;34.03;5.22;;;;;;;7.52;76.37;100837.22;5044385;28;20104;-73
2022/02/18 02:46:16;;;;;;;22.95;4.43;;;;;;;7.54;76.28;100829.31;5044402;28;20028;-72
2022/02/18 02:48:41;;;;;;;40.42;4.97;;;;;;;7.57;76.59;100830.13;5045349;28;20029;-72
2022/02/18 02:51:07;;;;;;;29.77;4.93;;;;;;;7.55;77.08;100841.50;5043472;28;20029;-71
2022/02/18 02:53:33;;;;;;;22.38;4.38;;;;;;;7.50;77.60;100835.53;5045768;28;20106;-71
2022/02/18 02:55:58;;;;;;;28.13;4.85;;;;;;;7.53;77.79;100832.84;5044944;28;20444;-73
2022/02/18 02:58:23;;;;;;;48.08;6.75;;;;;;;7.52;78.23;100818.84;5044489;28;20025;-73
2022/02/18 03:00:49;;;;;;;39.05;5.50;;;;;;;7.54;78.20;100806.59;5044507;28;20471;-72
2022/02/18 03:03:15;;;;;;;33.72;5.13;;;;;;;7.45;78.88;100793.66;5042608;28;20049;-70
2022/02/18 03:05:40;;;;;;;45.50;5.68;;;;;;;7.50;78.84;100786.56;5043855;28;20031;-70
2022/02/18 03:08:05;;;;;;;47.75;5.88;;;;;;;7.50;78.98;100776.09;5044780;28;20027;-71
2022/02/18 03:10:31;;;;;;;33.72;4.50;;;;;;;7.47;79.05;100765.66;5044555;28;20402;-73
2022/02/18 03:12:56;;;;;;;46.00;5.93;;;;;;;7.45;79.18;100770.94;5043153;28;20025;-71
2022/02/18 03:15:22;;;;;;;36.40;4.97;;;;;;;7.46;79.52;100759.53;5043764;28;20471;-72
2022/02/18 03:17:47;;;;;;;39.20;4.78;;;;;;;7.44;79.91;100757.88;5043947;28;20033;-72
2022/02/18 03:20:13;;;;;;;45.05;5.50;;;;;;;7.42;79.96;100754.41;5044870;28;20032;-70
2022/02/18 03:22:38;;;;;;;37.25;5.80;;;;;;;7.44;79.99;100750.84;5044238;28;20498;-71
2022/02/18 03:25:04;;;;;;;34.70;5.63;;;;;;;7.42;79.98;100746.53;5043925;28;20076;-70
2022/02/18 03:27:29;;;;;;;28.88;4.70;;;;;;;7.41;80.22;100729.94;5043783;28;20029;-72
2022/02/18 03:29:55;;;;;;;38.50;5.47;;;;;;;7.38;80.50;100729.16;5044631;28;20047;-73
2022/02/18 03:32:20;;;;;;;34.67;4.88;;;;;;;7.37;80.74;100716.97;5043798;28;20031;-73
2022/02/18 03:34:45;;;;;;;44.72;5.40;;;;;;;7.36;80.66;100704.72;5043949;28;20429;-73
2022/02/18 03:37:11;;;;;;;38.45;5.53;;;;;;;7.39;80.86;100702.03;5044905;28;20051;-72
2022/02/18 03:39:36;;;;;;;30.33;4.82;;;;;;;7.35;80.69;100679.41;5042985;28;20021;-71
2022/02/18 03:42:02;;;;;;;42.63;5.28;;;;;;;7.32;80.85;100672.50;5042472;28;20040;-73
2022/02/18 03:44:27;;;;;;;35.92;5.13;;;;;;;7.23;81.48;100647.38;5044703;28;20015;-71
2022/02/18 03:46:52;;;;;;;44.80;5.47;;;;;;;7.20;81.77;100636.94;5044092;28;20028;-70
2022/02/18 03:49:18;;;;;;;39.42;5.97;;;;;;;7.18;81.75;100623.88;5044106;28;20009;-71
2022/02/18 03:51:43;;;;;;;43.08;6.07;;;;;;;7.18;81.81;100602.91;5044921;28;20033;-71
2022/02/18 03:54:08;;;;;;;42.92;5.38;;;;;;;7.12;82.11;100586.47;5044257;28;20028;-69
2022/02/18 03:56:34;;;;;;;46.70;5.68;;;;;;;7.07;82.38;100582.19;5042474;28;20041;-72
2022/02/18 03:58:59;;;;;;;41.28;5.95;;;;;;;7.06;82.47;100588.34;5043240;28;20029;-70
2022/02/18 04:01:24;;;;;;;49.95;6.03;;;;;;;7.00;82.92;100578.00;5043232;28;20017;-71
2022/02/18 04:03:49;;;;;;;49.72;5.60;;;;;;;6.99;82.96;100578.91;5043200;28;20451;-70
2022/02/18 04:06:15;;;;;;;43.22;5.07;;;;;;;6.98;83.31;100566.69;5044344;28;20329;-70
2022/02/18 04:08:41;;;;;;;50.75;5.65;;;;;;;7.01;83.23;100556.13;5044645;28;20032;-71
2022/02/18 04:11:07;;;;;;;44.00;6.50;;;;;;;6.99;83.12;100547.47;5041822;28;20337;-69
2022/02/18 04:13:32;;;;;;;40.40;7.40;;;;;;;7.01;83.19;100553.50;5043222;28;20025;-72
2022/02/18 04:15:57;;;;;;;54.85;6.70;;;;;;;6.95;83.69;100556.28;5043409;28;20078;-72
2022/02/18 04:18:23;;;;;;;45.78;6.15;;;;;;;6.92;84.09;100554.59;5043128;28;20430;-73
2022/02/18 04:20:48;;;;;;;47.17;5.78;;;;;;;6.88;84.18;100560.81;5042358;28;20115;-72
2022/02/18 04:23:13;;;;;;;53.20;6.70;;;;;;;6.87;84.34;100568.69;5043067;28;20115;-70
2022/02/18 04:25:39;;;;;;;42.28;6.05;;;;;;;6.89;84.26;100548.59;5042163;28;20119;-71
2022/02/18 04:28:05;;;;;;;56.90;6.63;;;;;;;6.89;84.48;100540.72;5044058;28;20029;-71
2022/02/18 04:30:31;;;;;;;61.20;7.50;;;;;;;6.86;84.54;100525.06;5043461;28;20464;-70
2022/02/18 04:32:56;;;;;;;35.33;5.57;;;;;;;6.92;84.26;100528.41;5042721;28;20075;-69
2022/02/18 04:35:21;;;;;;;56.83;7.30;;;;;;;7.00;83.94;100538.69;5043765;28;20029;-71
2022/02/18 04:37:47;;;;;;;39.47;6.80;;;;;;;6.99;83.80;100521.28;5041804;28;20032;-72
2022/02/18 04:40:14;;;;;;;47.17;6.68;;;;;;;6.97;83.92;100524.81;5043046;28;20434;-70
2022/02/18 04:42:40;;;;;;;46.20;7.90;;;;;;;6.97;83.97;100504.72;5042666;28;20025;-69
2022/02/18 04:45:05;;;;;;;40.00;6.07;;;;;;;7.01;83.82;100498.50;5043344;28;20391;-73
2022/02/18 04:47:31;;;;;;;42.35;7.10;;;;;;;7.03;83.64;100482.75;5042519;28;20116;-72
2022/02/18 04:49:56;;;;;;;33.13;6.20;;;;;;;7.01;83.71;100468.84;5043840;28;20024;-73
2022/02/18 04:52:21;;;;;;;47.65;7.65;;;;;;;7.04;83.71;100455.63;5043712;28;20431;-70
2022/02/18 04:54:47;;;;;;;49.00;8.60;;;;;;;7.03;83.73;100446.94;5043324;28;20032;-72
2022/02/18 04:57:12;;;;;;;60.35;8.88;;;;;;;7.06;83.37;100431.16;5042757;28;20029;-71
2022/02/18 04:59:38;;;;;;;56.90;7.45;;;;;;;7.05;83.33;100421.53;5043284;28;20505;-71
2022/02/18 05:02:03;;;;;;;53.60;6.88;;;;;;;7.06;83.54;100427.66;5042526;28;20052;-69
2022/02/18 05:04:29;;;;;;;50.63;6.40;;;;;;;7.08;83.25;100418.84;5043916;28;20468;-70
2022/02/18 05:06:54;;;;;;;51.80;7.13;;;;;;;7.11;83.05;100423.16;5043493;28;20479;-72
2022/02/18 05:09:20;;;;;;;49.17;7.43;;;;;;;7.13;82.88;100421.34;5043829;28;20030;-71
2022/02/18 05:11:45;;;;;;;50.33;6.78;;;;;;;7.13;83.00;100402.16;5045241;28;20033;-70
2022/02/18 05:14:10;;;;;;;42.92;5.72;;;;;;;7.15;83.00;100389.88;5047132;28;20467;-69
2022/02/18 05:16:36;;;;;;;51.03;6.68;;;;;;;7.12;83.03;100396.06;5046439;28;20028;-72
2022/02/18 05:19:02;;;;;;;42.92;6.50;;;;;;;7.15;82.50;100376.75;5046689;28;20035;-70
2022/02/18 05:21:27;;;;;;;46.90;6.13;;;;;;;7.16;82.46;100358.38;5047157;28;20044;-70
2022/02/18 05:23:53;;;;;;;48.33;6.70;;;;;;;7.15;82.44;100350.56;5046998;28;20119;-73
2022/02/18 05:26:18;;;;;;;40.47;5.72;;;;;;;7.18;82.00;100329.53;5045717;28;20028;-72
2022/02/18 05:28:43;;;;;;;30.90;4.45;;;;;;;7.14;82.04;100317.41;5044795;28;20017;-70
2022/02/18 05:31:09;;;;;;;52.88;5.70;;;;;;;7.14;81.83;100314.78;5046328;28;20495;-73
2022/02/18 05:33:34;;;;;;;49.28;6.55;;;;;;;7.19;81.33;100310.25;5046267;28;20052;-72
2022/02/18 05:35:59;;;;;;;48.33;7.80;;;;;;;7.13;81.58;100307.84;5046575;28;20021;-72
2022/02/18 05:38:25;;;;;;;36.10;5.22;;;;;;;7.16;81.21;100297.25;5046131;28;20029;-71
2022/02/18 05:40:50;;;;;;;31.40;5.20;;;;;;;7.14;81.12;100275.50;5045150;28;20380;-72
2022/02/18 05:43:16;;;;;;;31.42;4.72;;;;;;;7.16;80.66;100263.19;5040395;28;20523;-72
2022/02/18 05:45:41;;;;;;;34.88;5.47;;;;;;;7.17;80.47;100257.06;5047073;28;20510;-71
2022/02/18 05:48:06;;;;;;;37.13;5.95;;;;;;;7.22;80.29;100252.53;5045806;28;20033;-72
2022/02/18 05:50:32;;;;;;;32.17;5.22;;;;;;;7.21;80.08;100242.97;5047222;28;20017;-71
2022/02/18 05:52:57;;;;;;;25.77;4.80;;;;;;;7.31;79.62;100238.28;5051197;28;20066;-72
2022/02/18 05:55:22;;;;;;;28.48;4.15;;;;;;;7.30;79.57;100219.09;5050652;28;20029;-74
2022/02/18 05:57:48;;;;;;;34.33;4.45;;;;;;;7.28;79.31;100210.41;5045616;28;20024;-73
2022/02/18 06:00:13;;;;;;;30.98;4.97;;;;;;;7.34;79.20;100191.03;5045626;28;20029;-74
2022/02/18 06:02:39;;;;;;;30.75;5.70;;;;;;;7.33;78.67;100191.94;5046568;28;20049;-70
2022/02/18 06:05:06;;;;;;;34.63;5.72;;;;;;;7.43;78.41;100166.28;5046079;28;20033;-71
2022/02/18 06:07:31;;;;;;;34.20;5.00;;;;;;;7.42;78.46;100161.97;5046742;28;20017;-73
2022/02/18 06:09:56;;;;;;;33.72;4.72;;;;;;;7.44;78.41;100141.81;5046907;28;20098;-73
2022/02/18 06:12:22;;;;;;;31.13;5.03;;;;;;;7.41;78.43;100128.81;5044780;28;20036;-72
2022/02/18 06:14:50;;;;;;;30.70;4.53;;;;;;;7.48;78.47;100117.22;5045734;28;20025;-72
2022/02/18 06:17:22;;;;;;;35.28;5.07;;;;;;;7.48;78.84;100114.59;5045520;28;20025;-72
2022/02/18 06:19:47;;;;;;;28.50;5.47;;;;;;;7.42;80.16;100117.41;5046662;28;20025;-72
2022/02/18 06:22:14;;;;;;;27.13;4.60;;;;;;;7.39;80.65;100107.00;5045419;28;20051;-71
2022/02/18 06:24:40;;;;;;;31.73;5.18;;;;;;;7.31;81.79;100089.78;5047367;28;20220;-70
2022/02/18 06:27:05;;;;;;;35.65;5.18;;;;;;;7.14;83.18;100085.09;5045325;28;20044;-69
2022/02/18 06:29:31;;;;;;;33.40;5.82;;;;;;;7.04;84.17;100070.53;5045785;28;20056;-70
2022/02/18 06:31:57;;;;;;;25.88;4.32;;;;;;;7.02;84.70;100062.75;5045308;28;20028;-71
2022/02/18 06:34:25;;;;;;;38.83;4.78;;;;;;;6.98;85.19;100048.03;5045021;28;20033;-72
2022/02/18 06:36:51;;;;;;;37.83;5.18;;;;;;;6.97;85.21;100048.94;5042296;28;20563;-72
2022/02/18 06:39:20;;;;;;;33.20;4.82;;;;;;;6.87;85.91;100039.66;5023507;28;20075;-67
2022/02/18 06:41:47;;;;;;;30.25;5.35;;;;;;;6.90;86.07;100029.09;5034590;28;20025;-68
2022/02/18 06:44:13;;;;;;;38.22;6.55;;;;;;;6.88;86.13;100023.91;5046034;28;20490;-68
2022/02/18 06:46:38;;;;;;;39.22;7.35;;;;;;;6.88;86.44;100020.41;5045058;28;20058;-66
2022/02/18 06:49:04;;;;;;;31.63;6.53;;;;;;;6.88;86.68;100018.66;5045212;28;20029;-68
2022/02/18 06:51:29;;;;;;;37.15;5.72;;;;;;;6.96;86.51;100013.19;5041494;28;20783;-67
2022/02/18 06:53:54;;;;;;;38.65;7.10;;;;;;;6.94;86.67;100007.13;5031134;28;20014;-68
2022/02/18 06:56:20;;;;;;;38.03;6.72;;;;;;;6.93;86.98;100008.03;5023401;28;20499;-67
2022/02/18 06:58:45;;;;;;;30.90;6.63;;;;;;;6.97;86.95;99991.31;5024443;28;20022;-66
2022/02/18 07:01:10;;;;;;;28.75;7.10;;;;;;;6.98;86.97;99987.78;5026177;28;20057;-68
2022/02/18 07:03:35;;;;;;;35.78;7.85;;;;;;;7.01;87.01;99998.16;5025685;28;20114;-68
2022/02/18 07:06:04;;;;;;;32.50;7.25;;;;;;;7.06;86.72;99985.78;5043967;28;20044;-69
2022/02/18 07:08:30;;;;;;;38.90;9.63;;;;;;;7.14;86.65;99979.44;5042244;28;20405;-68
2022/02/18 07:10:56;;;;;;;34.78;8.68;;;;;;;7.08;86.77;99957.75;5034253;28;20083;-67
2022/02/18 07:13:22;;;;;;;34.50;8.98;;;;;;;7.16;86.87;99948.78;5035536;28;20029;-67
2022/02/18 07:15:47;;;;;;;34.63;10.23;;;;;;;7.12;87.16;99947.16;5038310;28;20026;-67
2022/02/18 07:18:13;;;;;;;39.35;10.35;;;;;;;7.17;87.29;99945.25;5037641;28;20045;-67
2022/02/18 07:20:39;;;;;;;29.27;10.15;;;;;;;7.18;87.35;99945.22;5042616;28;20032;-66
2022/02/18 07:23:06;;;;;;;40.40;11.18;;;;;;;7.17;87.46;99925.13;5042744;28;20025;-65
2022/02/18 07:25:31;;;;;;;36.10;11.45;;;;;;;7.25;87.50;99908.31;5037444;28;20440;-65
2022/02/18 07:27:56;;;;;;;35.72;10.57;;;;;;;7.23;87.78;99897.91;5043105;28;20035;-67
2022/02/18 07:30:22;;;;;;;30.60;10.43;;;;;;;7.27;87.85;99878.53;5043986;28;20037;-70
2022/02/18 07:32:48;;;;;;;32.50;10.80;;;;;;;7.28;87.85;99875.00;5043348;28;20074;-69
2022/02/18 07:35:13;;;;;;;42.28;10.80;;;;;;;7.32;87.84;99881.00;5043235;28;20033;-68
2022/02/18 07:37:39;;;;;;;35.15;11.35;;;;;;;7.31;87.98;99861.78;5036000;28;20027;-73
2022/02/18 07:40:05;;;;;;;31.15;10.82;;;;;;;7.38;88.03;99880.78;5031415;28;20025;-72
2022/02/18 07:42:30;;;;;;;37.75;11.55;;;;;;;7.44;87.93;99866.59;5025211;28;20056;-67
2022/02/18 07:44:56;;;;;;;28.98;11.52;;;;;;;7.45;88.29;99856.03;5056899;28;20054;-70
2022/02/18 07:47:22;;;;;;;39.22;12.35;;;;;;;7.42;88.59;99853.53;5064577;28;20340;-70
2022/02/18 07:49:48;;;;;;;36.33;11.23;;;;;;;7.53;88.76;99849.66;5063119;28;20101;-69
2022/02/18 07:52:15;;;;;;;30.13;11.82;;;;;;;7.57;88.43;99848.63;5064394;28;20432;-71
2022/02/18 07:54:40;;;;;;;38.22;12.05;;;;;;;7.64;88.64;99838.75;5065003;28;20438;-70
2022/02/18 07:57:06;;;;;;;28.23;10.93;;;;;;;7.71;88.72;99835.00;5063253;28;20028;-71
2022/02/18 07:59:31;;;;;;;34.53;10.48;;;;;;;7.83;88.78;99821.41;5064644;28;20439;-71
2022/02/18 08:01:57;;;;;;;26.85;10.55;;;;;;;7.87;88.86;99830.03;5064524;28;20045;-72
2022/02/18 08:04:22;;;;;;;35.30;11.35;;;;;;;7.94;88.69;99807.88;5064545;28;20437;-74
2022/02/18 08:06:47;;;;;;;28.67;10.50;;;;;;;8.06;88.74;99793.41;5062901;28;20155;-72
2022/02/18 08:09:13;;;;;;;22.95;8.98;;;;;;;8.18;88.19;99792.06;5045052;28;20441;-72
2022/02/18 08:11:38;;;;;;;30.40;8.50;;;;;;;8.27;88.15;99784.72;5039859;28;20419;-69
2022/02/18 08:14:03;;;;;;;22.58;8.13;;;;;;;8.39;87.73;99784.22;5032835;28;20155;-70
2022/02/18 08:16:31;;;;;;;27.45;8.13;;;;;;;8.48;87.65;99788.22;5027456;28;20021;-69
2022/02/18 08:18:57;;;;;;;20.67;7.25;;;;;;;8.61;87.19;99783.31;5039754;28;20475;-72
2022/02/18 08:21:22;;;;;;;23.42;7.60;;;;;;;8.71;86.91;99761.03;5044700;28;20031;-75
2022/02/18 08:23:52;;;;;;;23.08;7.13;;;;;;;8.77;86.63;99745.91;5044396;28;20025;-73
2022/02/18 08:26:18;;;;;;;15.55;6.35;;;;;;;8.87;86.54;99736.69;5046738;28;20037;-72
2022/02/18 08:28:44;;;;;;;13.10;5.68;;;;;;;8.94;86.16;99751.25;5045163;28;20017;-71
2022/02/18 08:31:09;;;;;;;20.33;6.18;;;;;;;9.01;86.12;99728.22;5043762;28;20051;-69
2022/02/18 08:33:35;;;;;;;20.83;6.57;;;;;;;9.07;85.67;99725.31;5043535;28;20368;-69
2022/02/18 08:36:00;;;;;;;25.67;6.20;;;;;;;9.09;85.70;99733.97;5043848;28;20525;-69
2022/02/18 08:38:25;;;;;;;12.88;5.15;;;;;;;9.18;85.42;99721.34;5043432;28;20021;-72
2022/02/18 08:40:51;;;;;;;17.40;5.38;;;;;;;9.28;85.39;99711.22;5042458;28;20036;-70
2022/02/18 08:43:16;;;;;;;15.90;5.03;;;;;;;9.31;85.10;99697.94;5043406;28;20025;-69
2022/02/18 08:45:43;;;;;;;14.57;4.63;;;;;;;9.35;84.72;99710.88;5047123;28;20127;-70
2022/02/18 08:48:08;;;;;;;14.30;5.10;;;;;;;9.41;84.58;99703.63;5047156;28;20155;-70
2022/02/18 08:50:34;;;;;;;14.90;4.82;;;;;;;9.44;84.83;99677.19;5047861;28;20029;-70
2022/02/18 08:52:59;;;;;;;9.02;4.00;;;;;;;9.49;84.24;99680.44;5047042;28;20024;-68
2022/02/18 08:55:24;;;;;;;15.93;4.85;;;;;;;9.53;84.46;99666.22;5046405;28;20110;-70
2022/02/18 08:57:51;;;;;;;20.65;4.57;;;;;;;9.59;83.85;99665.06;5046173;28;20028;-70
2022/02/18 09:00:17;;;;;;;13.48;4.13;;;;;;;9.60;84.04;99654.47;5047203;28;20557;-69
2022/02/18 09:02:43;;;;;;;11.15;3.65;;;;;;;9.67;83.54;99651.53;5044867;28;20049;-70
2022/02/18 09:05:09;;;;;;;14.02;3.50;;;;;;;9.75;83.46;99640.66;5046460;28;20750;-70
2022/02/18 09:07:34;;;;;;;13.60;3.75;;;;;;;9.83;83.18;99636.72;5043637;28;20036;-70
2022/02/18 09:09:59;;;;;;;10.70;3.60;;;;;;;9.88;82.88;99633.84;5045371;28;20036;-71
2022/02/18 09:12:25;;;;;;;7.72;3.50;;;;;;;9.91;83.10;99627.56;5046923;28;20036;-71
2022/02/18 09:14:51;;;;;;;15.05;3.80;;;;;;;9.97;82.80;99630.72;5041383;28;20558;-71
2022/02/18 09:17:16;;;;;;;9.60;3.03;;;;;;;9.99;82.65;99617.50;5047011;28;20055;-70
2022/02/18 09:19:42;;;;;;;9.73;3.70;;;;;;;10.04;82.65;99601.47;5047373;28;20017;-69
2022/02/18 09:22:07;;;;;;;6.72;2.67;;;;;;;10.11;82.54;99594.97;5044071;28;20028;-70
2022/02/18 09:24:32;;;;;;;10.13;2.72;;;;;;;10.13;82.47;99576.44;5046514;28;20383;-71
2022/02/18 09:26:58;;;;;;;7.68;2.63;;;;;;;10.10;82.44;99580.09;5045216;28;20380;-69
2022/02/18 09:29:26;;;;;;;6.50;2.53;;;;;;;10.15;82.46;99561.44;5047094;28;20472;-70
2022/02/18 09:31:51;;;;;;;5.75;2.42;;;;;;;10.23;82.34;99564.50;5045799;28;20108;-69
2022/02/18 09:34:17;;;;;;;4.65;2.55;;;;;;;10.30;82.32;99554.50;5045086;28;20039;-70
2022/02/18 09:36:42;;;;;;;7.82;2.08;;;;;;;10.34;81.73;99554.28;5047054;28;20029;-71
2022/02/18 09:39:09;;;;;;;7.28;2.40;;;;;;;10.37;81.89;99534.81;5044810;28;20028;-70
2022/02/18 09:41:35;;;;;;;5.97;2.10;;;;;;;10.45;81.25;99534.41;5045288;28;20660;-70
2022/02/18 09:44:02;;;;;;;3.90;1.77;;;;;;;10.51;81.33;99523.56;5044060;28;20083;-70
2022/02/18 09:46:28;;;;;;;4.60;1.98;;;;;;;10.59;80.95;99534.53;5046336;28;20029;-69
2022/02/18 09:48:54;;;;;;;4.35;2.22;;;;;;;10.71;80.77;99532.13;5045323;28;20116;-69
2022/02/18 09:51:20;;;;;;;3.13;1.70;;;;;;;10.79;80.40;99522.03;5046429;28;20104;-70
2022/02/18 09:53:45;;;;;;;6.47;1.70;;;;;;;10.79;81.12;99505.38;5046669;28;20029;-69
2022/02/18 09:56:11;;;;;;;3.78;1.98;;;;;;;10.79;81.70;99514.13;5043294;28;20029;-70
2022/02/18 09:58:38;;;;;;;8.68;2.00;;;;;;;10.79;81.75;99503.59;5046041;28;20025;-70
2022/02/18 10:01:04;;;;;;;5.53;1.40;;;;;;;10.82;82.10;99497.28;5046023;28;20387;-70
2022/02/18 10:03:30;;;;;;;4.82;1.63;;;;;;;10.80;82.38;99484.19;5045853;28;20399;-69
2022/02/18 10:05:56;;;;;;;5.95;1.63;;;;;;;10.83;82.53;99465.59;5043524;28;20029;-69
2022/02/18 10:08:22;;;;;;;5.15;1.63;;;;;;;10.78;82.69;99474.69;5043942;28;20056;-69
2022/02/18 10:11:19;;;;;;;4.70;1.80;;;;;;;10.70;82.63;99454.03;5043592;28;20032;-71
2022/02/18 10:13:45;;;;;;;5.47;1.77;;;;;;;10.79;82.70;99453.53;5011603;28;20084;-69
2022/02/18 10:16:11;;;;;;;4.97;1.85;;;;;;;10.82;82.46;99455.13;5046667;28;20106;-70
2022/02/18 10:18:48;;;;;;;3.00;1.40;;;;;;;10.86;81.97;99446.09;5045644;28;20039;-70
2022/02/18 10:21:34;;;;;;;3.22;1.38;;;;;;;10.88;81.91;99446.88;5045647;28;20048;-71
2022/02/18 10:24:12;;;;;;;2.97;1.50;;;;;;;10.88;81.97;99438.97;5041386;28;20142;-70
2022/02/18 10:26:54;;;;;;;6.07;1.30;;;;;;;10.99;81.92;99427.81;5044271;28;20112;-70
2022/02/18 10:29:24;;;;;;;1.98;1.25;;;;;;;10.97;81.94;99427.03;5045129;28;20074;-70
2022/02/18 10:32:15;;;;;;;1.80;1.25;;;;;;;10.99;81.55;99418.09;5045609;28;20033;-69
2022/02/18 10:35:00;;;;;;;2.33;1.10;;;;;;;11.04;81.12;99396.75;5045745;28;20536;-68
2022/02/18 10:37:27;;;;;;;2.28;1.20;;;;;;;11.09;80.73;99421.06;5045044;28;20491;-70
2022/02/18 10:40:10;;;;;;;3.90;1.13;;;;;;;11.08;80.70;99400.06;5044477;28;20035;-69
2022/02/18 10:42:37;;;;;;;3.88;1.02;;;;;;;11.12;80.98;99365.53;5038473;28;20025;-68
2022/02/18 10:45:16;;;;;;;2.13;0.88;;;;;;;11.18;80.87;99392.44;5041036;28;20094;-70
2022/02/18 10:47:42;;;;;;;1.98;0.95;;;;;;;11.16;80.81;99374.09;5038279;28;20432;-69
2022/02/18 10:50:22;;;;;;;2.45;1.20;;;;;;;11.11;81.46;99363.81;5044717;28;20020;-70
2022/02/18 10:53:16;;;;;;;3.10;0.88;;;;;;;11.31;80.65;99348.59;5044997;28;20083;-70
2022/02/18 10:55:52;;;;;;;1.83;1.08;;;;;;;11.50;80.58;99334.28;5037919;28;20124;-70
2022/02/18 10:58:26;;;;;;;3.15;1.10;;;;;;;11.53;79.67;99334.06;5044573;28;20151;-69
2022/02/18 11:01:04;;;;;;;1.52;0.82;;;;;;;11.50;80.11;99323.72;5044906;28;20060;-70
2022/02/18 11:03:30;;;;;;;1.88;0.90;;;;;;;11.55;80.23;99305.81;5044720;28;20938;-69
2022/02/18 11:06:11;;;;;;;5.35;0.95;;;;;;;11.56;80.33;99311.94;5043248;28;20110;-68
2022/02/18 11:08:37;;;;;;;0.85;0.80;;;;;;;11.49;80.39;99278.03;5042931;28;20066;-69
2022/02/18 11:11:12;;;;;;;1.52;0.95;;;;;;;11.55;80.29;99291.75;5034226;28;20648;-70
2022/02/18 11:13:40;;;;;;;1.92;0.90;;;;;;;11.33;81.01;99293.97;5042988;28;20017;-68
2022/02/18 11:16:09;;;;;;;0.90;0.75;;;;;;;11.42;81.10;99294.31;5043626;28;20036;-71
2022/02/18 11:18:37;;;;;;;3.88;1.00;;;;;;;11.40;81.00;99275.09;5039110;28;20033;-68
2022/02/18 11:21:02;;;;;;;1.75;0.82;;;;;;;11.31;81.74;99276.53;5038825;28;20070;-69
2022/02/18 11:23:30;;;;;;;0.95;0.90;;;;;;;11.29;82.01;99268.72;5031401;28;20025;-70